Time;durP1;ratioP1;P1;durP2;ratioP2;P2;SDS_P1;SDS_P2;PMS_P1;PMS_P2;Temp;Humidity;BMP_temperature;BMP_pressure;BME280_temperature;BME280_humidity;BME280_pressure;Samples;Min_cycle;Max_cycle;Signal;HPM_P1;HPM_P2
2023/09/25 00:02:16;;;;;;;2.38;1.38;;;19.50;73.40;;;;;;10451504;28;20078;-56
2023/09/25 00:07:17;;;;;;;4.28;2.13;;;19.40;73.10;;;;;;10490762;28;20033;-58
2023/09/25 00:12:18;;;;;;;2.40;1.33;;;19.50;73.20;;;;;;10465836;28;20021;-57
2023/09/25 00:17:19;;;;;;;1.73;1.20;;;19.50;73.00;;;;;;10462290;28;20052;-57
2023/09/25 00:22:19;;;;;;;2.20;1.67;;;19.40;72.70;;;;;;10489337;28;20032;-57
2023/09/25 00:27:20;;;;;;;3.35;1.75;;;19.50;73.00;;;;;;10488783;28;20487;-57
2023/09/25 00:32:21;;;;;;;2.95;1.52;;;19.50;72.70;;;;;;10463157;28;20033;-57
2023/09/25 00:37:22;;;;;;;2.70;1.40;;;19.40;72.70;;;;;;10447244;28;20039;-58
2023/09/25 00:42:23;;;;;;;1.98;1.40;;;19.40;72.60;;;;;;10447778;28;20112;-58
2023/09/25 00:47:23;;;;;;;3.72;1.67;;;19.40;72.60;;;;;;10446852;28;20033;-58
2023/09/25 00:52:25;;;;;;;3.63;1.95;;;19.40;72.60;;;;;;10447266;28;20659;-57
2023/09/25 00:57:28;;;;;;;2.83;1.52;;;19.40;72.80;;;;;;10446569;28;20032;-58
2023/09/25 01:02:31;;;;;;;2.80;1.60;;;19.40;73.10;;;;;;10447279;28;20036;-58
2023/09/25 01:07:31;;;;;;;2.60;1.48;;;19.40;72.90;;;;;;10446633;28;20601;-57
2023/09/25 01:12:33;;;;;;;3.30;1.80;;;19.40;73.00;;;;;;10464446;28;20035;-58
2023/09/25 01:17:35;;;;;;;2.85;2.03;;;19.40;73.30;;;;;;10427745;28;1096335;-58
2023/09/25 01:22:36;;;;;;;2.78;1.60;;;19.40;73.00;;;;;;10456141;28;20036;-58
2023/09/25 01:27:39;;;;;;;2.72;1.92;;;19.40;73.00;;;;;;10465080;28;20028;-58
2023/09/25 01:32:44;;;;;;;3.15;1.92;;;19.40;73.00;;;;;;10467866;28;20391;-58
2023/09/25 01:37:46;;;;;;;2.40;1.52;;;19.30;72.60;;;;;;10455138;28;20108;-58
2023/09/25 01:42:47;;;;;;;3.00;2.00;;;19.30;72.50;;;;;;10455154;28;20060;-58
2023/09/25 01:47:51;;;;;;;3.75;2.00;;;19.30;72.40;;;;;;10454412;28;20037;-58
2023/09/25 01:52:55;;;;;;;2.75;1.80;;;19.30;72.70;;;;;;10454819;28;20060;-57
2023/09/25 01:57:56;;;;;;;3.38;2.50;;;19.30;72.50;;;;;;10453839;28;20032;-57
2023/09/25 02:02:57;;;;;;;6.45;2.05;;;19.30;72.70;;;;;;10454681;28;20036;-56
2023/09/25 02:07:57;;;;;;;3.58;1.85;;;19.30;72.90;;;;;;10453829;28;20040;-58
2023/09/25 02:12:58;;;;;;;2.47;1.60;;;19.30;73.00;;;;;;10453922;28;20033;-58
2023/09/25 02:17:59;;;;;;;3.15;2.17;;;19.30;73.00;;;;;;10472662;28;20044;-57
2023/09/25 02:23:00;;;;;;;2.72;1.90;;;19.30;72.70;;;;;;10510930;28;20082;-58
2023/09/25 02:28:00;;;;;;;3.67;2.20;;;19.30;73.10;;;;;;10495111;28;20387;-57
2023/09/25 02:33:01;;;;;;;2.47;1.52;;;19.30;73.00;;;;;;10463937;28;20033;-57
2023/09/25 02:38:02;;;;;;;2.97;2.10;;;19.30;72.80;;;;;;10452583;28;20029;-58
2023/09/25 02:43:03;;;;;;;4.03;2.08;;;19.30;72.80;;;;;;10469647;28;20498;-58
2023/09/25 02:48:04;;;;;;;2.33;1.77;;;19.30;72.70;;;;;;10493554;28;20051;-57
2023/09/25 02:53:05;;;;;;;2.88;2.10;;;19.20;73.40;;;;;;10493715;28;20024;-57
2023/09/25 02:58:06;;;;;;;3.15;2.38;;;19.30;73.10;;;;;;10489143;28;20033;-57
2023/09/25 03:03:06;;;;;;;2.60;1.58;;;19.20;72.90;;;;;;10453137;28;20098;-58
2023/09/25 03:08:07;;;;;;;2.88;1.60;;;19.20;72.70;;;;;;10469565;28;20082;-57
2023/09/25 03:13:08;;;;;;;3.30;1.88;;;19.20;72.90;;;;;;10458633;28;20040;-57
2023/09/25 03:18:11;;;;;;;2.95;1.83;;;19.20;72.90;;;;;;10469894;28;20521;-58
2023/09/25 03:23:12;;;;;;;2.97;1.77;;;19.20;73.00;;;;;;10451155;28;20460;-57
2023/09/25 03:28:12;;;;;;;2.42;1.85;;;19.20;73.00;;;;;;10456168;28;20038;-57
2023/09/25 03:33:13;;;;;;;3.00;1.58;;;19.20;73.50;;;;;;10477362;28;20045;-57
2023/09/25 03:38:14;;;;;;;2.28;1.45;;;19.20;72.90;;;;;;10457303;28;20570;-57
2023/09/25 03:43:15;;;;;;;2.67;1.50;;;19.20;72.70;;;;;;10472617;28;20020;-57
2023/09/25 03:48:15;;;;;;;2.80;1.80;;;19.30;72.60;;;;;;10465665;28;20024;-58
2023/09/25 03:53:16;;;;;;;2.85;2.00;;;19.30;72.40;;;;;;10463929;28;20032;-58
2023/09/25 03:58:17;;;;;;;1.98;1.33;;;19.30;72.40;;;;;;10465557;28;20021;-57
2023/09/25 04:03:17;;;;;;;3.28;1.70;;;19.30;72.50;;;;;;10472234;28;20028;-57
2023/09/25 04:08:18;;;;;;;4.55;2.00;;;19.30;72.50;;;;;;10465041;28;20469;-58
2023/09/25 04:13:22;;;;;;;2.67;1.50;;;19.30;72.60;;;;;;10480522;28;20414;-58
2023/09/25 04:18:23;;;;;;;2.85;1.70;;;19.30;72.60;;;;;;10482033;28;20041;-58
2023/09/25 04:23:24;;;;;;;3.75;1.80;;;19.30;72.80;;;;;;10461440;28;20068;-58
2023/09/25 04:28:24;;;;;;;2.90;1.30;;;19.20;73.00;;;;;;10458400;28;20031;-58
2023/09/25 04:33:26;;;;;;;2.28;1.55;;;19.20;72.90;;;;;;10452728;28;20025;-57
2023/09/25 04:38:31;;;;;;;2.88;1.40;;;19.20;73.00;;;;;;10449739;28;20057;-58
2023/09/25 04:43:32;;;;;;;2.65;1.80;;;19.10;72.90;;;;;;10490751;28;20063;-58
2023/09/25 04:48:36;;;;;;;2.40;1.60;;;19.10;73.00;;;;;;10478629;28;20024;-58
2023/09/25 04:53:37;;;;;;;4.82;1.80;;;19.10;73.00;;;;;;10483442;28;20035;-57
2023/09/25 04:58:37;;;;;;;2.53;1.60;;;19.10;73.00;;;;;;10497667;28;20070;-57
2023/09/25 05:03:40;;;;;;;3.42;1.55;;;19.10;73.00;;;;;;10498272;28;20020;-59
2023/09/25 05:08:41;;;;;;;3.63;2.08;;;19.10;73.00;;;;;;10497386;28;20632;-57
2023/09/25 05:13:42;;;;;;;2.40;1.55;;;19.20;72.40;;;;;;10460161;28;20036;-57
2023/09/25 05:18:43;;;;;;;4.68;2.10;;;19.30;72.10;;;;;;10481430;28;20387;-56
2023/09/25 05:23:43;;;;;;;13.98;2.28;;;19.40;72.40;;;;;;10496980;28;20067;-56
2023/09/25 05:28:44;;;;;;;8.50;2.10;;;19.30;72.10;;;;;;10502374;28;20042;-56
2023/09/25 05:33:45;;;;;;;6.18;2.17;;;19.40;72.80;;;;;;10455292;28;20488;-56
2023/09/25 05:38:46;;;;;;;11.18;2.03;;;19.40;73.00;;;;;;10455580;28;20099;-56
2023/09/25 05:43:47;;;;;;;10.35;2.90;;;19.40;72.80;;;;;;10454802;28;20043;-57
2023/09/25 05:48:48;;;;;;;10.85;2.10;;;19.40;72.60;;;;;;10455244;28;20482;-56
2023/09/25 05:53:48;;;;;;;13.18;2.60;;;19.50;73.00;;;;;;10466613;28;20033;-56
2023/09/25 05:58:52;;;;;;;9.68;3.95;;;19.50;72.60;;;;;;10467320;28;20035;-57
2023/09/25 06:03:54;;;;;;;11.27;2.35;;;19.60;72.20;;;;;;10485780;28;20052;-60
2023/09/25 06:08:54;;;;;;;18.10;4.03;;;19.50;72.20;;;;;;10463174;28;20033;-55
2023/09/25 06:13:55;;;;;;;10.10;2.72;;;19.50;72.50;;;;;;10465934;28;20106;-57
2023/09/25 06:18:56;;;;;;;20.65;4.53;;;19.40;72.40;;;;;;10460515;28;20049;-57
2023/09/25 06:23:57;;;;;;;16.25;3.95;;;19.40;72.10;;;;;;10452841;28;20043;-58
2023/09/25 06:28:58;;;;;;;20.55;4.40;;;19.40;72.00;;;;;;10467748;28;20039;-58
2023/09/25 06:33:59;;;;;;;18.55;4.60;;;19.30;72.20;;;;;;10471843;28;20039;-59
2023/09/25 06:39:01;;;;;;;11.02;3.38;;;19.30;72.40;;;;;;10455345;28;20543;-57
2023/09/25 06:44:01;;;;;;;12.57;3.20;;;19.40;72.40;;;;;;10452261;28;20521;-57
2023/09/25 06:49:02;;;;;;;10.75;2.85;;;19.40;72.40;;;;;;10474135;28;20082;-57
2023/09/25 06:54:04;;;;;;;12.00;3.78;;;19.40;72.60;;;;;;10492111;28;20044;-57
2023/09/25 06:59:04;;;;;;;12.25;3.70;;;19.50;72.80;;;;;;10492868;28;20443;-57
2023/09/25 07:04:06;;;;;;;25.08;5.35;;;19.40;72.80;;;;;;10488557;28;20025;-59
2023/09/25 07:09:09;;;;;;;55.97;24.88;;;19.40;72.70;;;;;;10491750;28;20024;-58
2023/09/25 07:14:09;;;;;;;39.20;17.27;;;19.40;71.60;;;;;;10489098;28;20033;-59
2023/09/25 07:19:11;;;;;;;29.63;13.05;;;19.30;70.80;;;;;;10486864;28;20098;-60
2023/09/25 07:24:12;;;;;;;18.17;8.52;;;19.30;69.80;;;;;;10490721;28;20043;-59
2023/09/25 07:29:12;;;;;;;16.23;7.53;;;19.30;67.60;;;;;;10480155;28;20040;-60
2023/09/25 07:34:13;;;;;;;17.63;5.68;;;19.30;68.80;;;;;;10449521;28;20090;-59
2023/09/25 07:39:15;;;;;;;13.23;5.40;;;19.30;68.10;;;;;;10486772;28;20066;-59
2023/09/25 07:44:16;;;;;;;12.30;4.70;;;19.30;68.10;;;;;;10455790;28;20064;-60
2023/09/25 07:49:18;;;;;;;9.52;4.63;;;19.30;67.80;;;;;;10491660;28;20031;-59
2023/09/25 07:54:19;;;;;;;11.18;5.40;;;19.30;67.80;;;;;;10488383;28;20628;-60
2023/09/25 07:59:25;;;;;;;9.00;4.15;;;19.30;71.50;;;;;;10463696;28;20021;-59
2023/09/25 08:04:26;;;;;;;7.20;3.35;;;19.30;69.60;;;;;;10448485;28;20033;-60
2023/09/25 08:09:27;;;;;;;5.50;2.85;;;19.30;69.30;;;;;;10450781;28;20027;-59
2023/09/25 08:14:27;;;;;;;9.35;3.30;;;19.40;68.80;;;;;;10447764;28;20029;-57
2023/09/25 08:19:28;;;;;;;6.18;2.92;;;19.40;68.10;;;;;;10480478;28;20049;-59
2023/09/25 08:24:29;;;;;;;7.00;2.78;;;19.50;69.70;;;;;;10492066;28;20032;-58
2023/09/25 08:29:30;;;;;;;6.43;3.17;;;19.60;69.80;;;;;;10494318;28;20060;-61
2023/09/25 08:34:30;;;;;;;6.10;2.50;;;19.60;70.90;;;;;;10497582;28;20033;-57
2023/09/25 08:39:31;;;;;;;14.20;3.30;;;19.60;70.20;;;;;;10496251;28;20043;-57
2023/09/25 08:44:33;;;;;;;11.60;2.72;;;19.50;68.30;;;;;;10496771;28;20032;-56
2023/09/25 08:49:36;;;;;;;12.57;3.40;;;19.50;68.80;;;;;;10457156;28;20063;-59
2023/09/25 08:54:37;;;;;;;13.23;3.88;;;19.50;69.00;;;;;;10449505;28;20079;-57
2023/09/25 08:59:39;;;;;;;8.63;3.10;;;19.50;68.60;;;;;;10469508;28;20086;-57
2023/09/25 09:04:40;;;;;;;12.20;3.17;;;19.50;68.70;;;;;;10455482;28;20029;-58
2023/09/25 09:09:43;;;;;;;11.93;2.85;;;19.50;69.00;;;;;;10460108;28;20415;-58
2023/09/25 09:14:44;;;;;;;8.65;2.60;;;19.50;69.10;;;;;;10454790;28;20033;-58
2023/09/25 09:19:48;;;;;;;9.00;3.67;;;19.50;69.10;;;;;;10487638;28;20508;-58
2023/09/25 09:24:51;;;;;;;5.07;2.50;;;19.50;69.20;;;;;;10495955;28;20040;-58
2023/09/25 09:29:52;;;;;;;6.00;2.85;;;19.50;69.30;;;;;;10491729;28;20116;-58
2023/09/25 09:34:53;;;;;;;8.45;2.72;;;19.60;69.50;;;;;;10453256;28;20033;-57
2023/09/25 09:39:55;;;;;;;6.03;2.53;;;19.60;69.40;;;;;;10454613;28;20470;-58
2023/09/25 09:44:56;;;;;;;6.55;2.72;;;19.60;69.30;;;;;;10453267;28;20025;-58
2023/09/25 09:49:57;;;;;;;7.97;3.53;;;19.60;69.20;;;;;;10472472;28;20032;-58
2023/09/25 09:54:59;;;;;;;4.22;2.40;;;19.60;69.40;;;;;;10462411;28;20502;-57
2023/09/25 10:00:00;;;;;;;3.78;2.70;;;19.60;69.40;;;;;;10477173;28;20055;-58
2023/09/25 10:05:03;;;;;;;6.65;2.90;;;19.60;69.50;;;;;;10493840;28;20045;-58
2023/09/25 10:10:05;;;;;;;4.82;3.28;;;19.70;69.70;;;;;;10458848;28;20043;-58
2023/09/25 10:15:08;;;;;;;5.32;3.30;;;19.70;69.60;;;;;;10452674;28;20108;-57
2023/09/25 10:20:41;;;;;;;5.45;3.55;;;19.70;69.80;;;;;;10489704;28;20025;-57
2023/09/25 10:25:47;;;;;;;6.18;4.20;;;19.70;69.90;;;;;;10465016;28;20132;-58
2023/09/25 10:30:50;;;;;;;4.75;3.63;;;19.70;70.00;;;;;;10465174;28;20116;-57
2023/09/25 10:35:57;;;;;;;4.32;3.80;;;19.70;70.10;;;;;;10452547;28;20019;-57
2023/09/25 10:41:07;;;;;;;6.13;4.28;;;19.80;70.00;;;;;;10453148;28;20039;-56
2023/09/25 10:46:08;;;;;;;5.03;4.10;;;19.80;70.00;;;;;;10450759;28;20033;-55
2023/09/25 10:51:08;;;;;;;6.07;4.20;;;19.90;69.90;;;;;;10451882;28;20026;-58
2023/09/25 10:56:11;;;;;;;10.90;4.60;;;19.80;69.80;;;;;;10450592;28;20029;-58
2023/09/25 11:01:11;;;;;;;11.02;3.97;;;19.80;70.30;;;;;;10460464;28;20036;-57
2023/09/25 11:06:13;;;;;;;7.63;4.03;;;19.90;70.50;;;;;;10450543;28;20043;-58
2023/09/25 11:11:14;;;;;;;11.35;3.83;;;19.90;70.50;;;;;;10454495;28;20041;-56
2023/09/25 11:16:15;;;;;;;4.95;3.13;;;19.90;70.70;;;;;;10456303;28;20488;-57
2023/09/25 11:21:16;;;;;;;10.40;3.03;;;19.90;71.00;;;;;;10479437;28;20075;-57
2023/09/25 11:26:17;;;;;;;13.32;3.47;;;20.00;71.00;;;;;;10490967;28;20050;-56
2023/09/25 11:31:18;;;;;;;8.85;3.08;;;20.00;71.10;;;;;;10471125;28;20039;-57
2023/09/25 11:36:19;;;;;;;9.80;2.95;;;20.00;71.10;;;;;;10484458;28;20464;-57
2023/09/25 11:41:20;;;;;;;8.02;2.95;;;20.00;71.10;;;;;;10450196;28;20108;-56
2023/09/25 11:46:21;;;;;;;9.60;2.55;;;20.00;71.30;;;;;;10484771;28;20439;-57
2023/09/25 11:51:22;;;;;;;11.32;3.08;;;20.00;71.60;;;;;;10488342;28;20404;-56
2023/09/25 11:56:23;;;;;;;6.20;2.30;;;20.00;71.50;;;;;;10490172;28;20032;-58
2023/09/25 12:01:24;;;;;;;15.38;2.85;;;20.00;71.70;;;;;;10475862;28;20024;-55
2023/09/25 12:06:25;;;;;;;12.00;3.45;;;20.00;71.80;;;;;;10489576;28;20028;-57
2023/09/25 12:11:26;;;;;;;12.02;2.55;;;20.00;71.80;;;;;;10490365;28;20487;-57
2023/09/25 12:16:27;;;;;;;10.60;2.42;;;20.00;71.50;;;;;;10487164;28;20056;-57
2023/09/25 12:21:28;;;;;;;13.38;3.45;;;20.00;71.50;;;;;;10457760;28;20025;-58
2023/09/25 12:26:28;;;;;;;17.75;2.97;;;20.10;71.50;;;;;;10470990;28;20476;-59
2023/09/25 12:31:29;;;;;;;12.10;2.65;;;20.10;71.60;;;;;;10463380;28;20029;-58
2023/09/25 12:36:30;;;;;;;19.05;2.85;;;20.20;71.80;;;;;;10451558;28;20041;-60
2023/09/25 12:41:31;;;;;;;11.07;2.80;;;20.20;71.70;;;;;;10455149;28;20376;-59
2023/09/25 12:46:32;;;;;;;10.70;2.63;;;20.20;72.00;;;;;;10472258;28;20044;-60
2023/09/25 12:51:32;;;;;;;10.23;2.15;;;20.20;72.10;;;;;;10474298;28;20094;-58
2023/09/25 12:56:33;;;;;;;14.93;3.20;;;20.20;72.20;;;;;;10451541;28;20044;-58
2023/09/25 13:01:35;;;;;;;15.18;3.17;;;20.20;72.30;;;;;;10454789;28;20106;-58
2023/09/25 13:06:35;;;;;;;10.25;3.08;;;20.30;72.30;;;;;;10448315;28;20043;-57
2023/09/25 13:11:38;;;;;;;11.00;3.63;;;20.30;72.10;;;;;;10454728;28;20041;-57
2023/09/25 13:16:38;;;;;;;6.90;1.85;;;20.30;72.30;;;;;;10458243;28;20037;-58
2023/09/25 13:21:39;;;;;;;10.90;3.03;;;20.30;72.60;;;;;;10456138;28;20415;-58
2023/09/25 13:26:40;;;;;;;33.05;4.55;;;20.30;72.40;;;;;;10455652;28;20021;-59
2023/09/25 13:31:41;;;;;;;29.27;4.70;;;20.20;72.50;;;;;;10471421;28;20028;-58
2023/09/25 13:36:41;;;;;;;24.65;4.90;;;20.30;72.90;;;;;;10491280;28;20036;-58
2023/09/25 13:41:42;;;;;;;19.70;4.10;;;20.30;73.00;;;;;;10495608;28;20472;-58
2023/09/25 13:46:43;;;;;;;21.25;4.32;;;20.30;72.80;;;;;;10478562;28;20043;-58
2023/09/25 13:51:44;;;;;;;28.10;5.32;;;20.30;72.60;;;;;;10495328;28;20025;-58
2023/09/25 13:56:45;;;;;;;14.45;4.45;;;20.30;74.00;;;;;;10495635;28;20337;-58
2023/09/25 14:01:46;;;;;;;22.80;3.92;;;20.40;74.50;;;;;;10463631;28;20024;-57
2023/09/25 14:06:47;;;;;;;19.02;4.15;;;20.50;74.00;;;;;;10454213;28;20060;-56
2023/09/25 14:11:49;;;;;;;24.75;5.22;;;20.50;73.50;;;;;;10453981;28;20328;-59
2023/09/25 14:16:51;;;;;;;24.63;4.47;;;20.60;73.10;;;;;;10462793;28;20048;-60
2023/09/25 14:21:52;;;;;;;23.58;4.47;;;20.50;73.60;;;;;;10493834;28;20048;-58
2023/09/25 14:26:59;;;;;;;19.20;4.65;;;20.40;71.90;;;;;;10459452;28;20515;-58
2023/09/25 14:32:00;;;;;;;30.30;6.10;;;20.40;72.30;;;;;;10471867;28;20116;-58
2023/09/25 14:37:01;;;;;;;49.58;6.75;;;20.40;72.90;;;;;;10452951;28;20088;-57
2023/09/25 14:42:01;;;;;;;44.83;5.53;;;20.40;73.20;;;;;;10452903;28;20043;-58
2023/09/25 14:47:02;;;;;;;49.65;6.72;;;20.30;73.40;;;;;;10483503;28;20047;-59
2023/09/25 14:52:05;;;;;;;31.73;6.05;;;20.40;73.70;;;;;;10483624;28;20041;-60
2023/09/25 14:57:06;;;;;;;31.38;4.63;;;20.50;74.00;;;;;;10451957;28;20048;-61
2023/09/25 15:02:06;;;;;;;25.00;4.95;;;20.60;73.10;;;;;;10451740;28;20048;-61
2023/09/25 15:07:07;;;;;;;13.98;3.45;;;20.60;71.90;;;;;;10451622;28;21626;-59
2023/09/25 15:12:08;;;;;;;13.98;4.72;;;20.40;69.70;;;;;;10451098;28;20029;-58
2023/09/25 15:17:09;;;;;;;30.25;4.22;;;20.40;71.00;;;;;;10487980;28;20119;-61
2023/09/25 15:22:09;;;;;;;27.65;4.22;;;20.30;68.80;;;;;;10492291;28;20470;-61
2023/09/25 15:27:10;;;;;;;33.20;11.07;;;20.20;68.10;;;;;;10468340;28;20495;-59
2023/09/25 15:32:11;;;;;;;20.45;6.10;;;20.40;74.60;;;;;;10478896;28;20036;-58
2023/09/25 15:37:13;;;;;;;22.70;6.30;;;20.70;71.80;;;;;;10476913;28;20064;-58
2023/09/25 15:42:14;;;;;;;11.35;5.53;;;20.80;69.50;;;;;;10464997;28;20097;-59
2023/09/25 15:47:15;;;;;;;15.25;3.67;;;21.00;70.40;;;;;;10449947;28;20487;-59
2023/09/25 15:52:19;;;;;;;20.85;5.13;;;21.00;70.60;;;;;;10451476;28;20036;-57
2023/09/25 15:57:19;;;;;;;30.30;5.55;;;21.00;70.60;;;;;;10483009;28;20035;-57
2023/09/25 16:02:20;;;;;;;22.30;5.35;;;21.00;71.40;;;;;;10487165;28;20031;-57
2023/09/25 16:07:21;;;;;;;27.02;5.57;;;21.00;71.40;;;;;;10458676;28;20127;-57
2023/09/25 16:12:22;;;;;;;25.35;6.32;;;21.00;71.90;;;;;;10449682;28;20033;-57
2023/09/25 16:17:23;;;;;;;15.48;5.00;;;20.70;71.80;;;;;;10460176;28;20049;-57
2023/09/25 16:22:23;;;;;;;17.55;3.85;;;20.50;72.20;;;;;;10490000;28;20021;-57
2023/09/25 16:27:25;;;;;;;18.67;4.40;;;20.60;72.40;;;;;;10490180;28;20032;-57
2023/09/25 16:32:25;;;;;;;19.85;4.47;;;20.60;73.00;;;;;;10463853;28;20055;-57
2023/09/25 16:37:26;;;;;;;21.17;5.82;;;20.50;72.70;;;;;;10469718;28;20036;-55
2023/09/25 16:42:27;;;;;;;17.23;4.72;;;20.30;73.00;;;;;;10469312;28;20024;-56
2023/09/25 16:47:27;;;;;;;16.60;3.90;;;20.30;73.10;;;;;;10468791;28;20025;-57
2023/09/25 16:52:28;;;;;;;11.77;4.18;;;20.20;73.10;;;;;;10480610;28;20024;-57
2023/09/25 16:57:29;;;;;;;14.65;4.30;;;20.20;73.10;;;;;;10463563;28;20037;-57
2023/09/25 17:02:30;;;;;;;13.40;4.85;;;20.20;73.00;;;;;;10476017;28;20051;-57
2023/09/25 17:07:32;;;;;;;12.05;4.18;;;20.10;73.20;;;;;;10468114;28;20031;-57
2023/09/25 17:12:35;;;;;;;10.55;3.67;;;20.10;73.20;;;;;;10469655;28;20028;-57
2023/09/25 17:17:36;;;;;;;7.53;3.25;;;20.10;73.20;;;;;;10477755;28;20464;-57
2023/09/25 17:22:36;;;;;;;6.93;3.17;;;20.10;73.40;;;;;;10470558;28;20020;-58
2023/09/25 17:27:37;;;;;;;5.72;3.38;;;20.10;73.20;;;;;;10485195;28;20025;-57
2023/09/25 17:32:38;;;;;;;8.18;3.55;;;20.10;73.40;;;;;;10468804;28;20031;-57
2023/09/25 17:37:39;;;;;;;9.48;3.63;;;20.00;73.40;;;;;;10475925;28;20037;-57
2023/09/25 17:42:40;;;;;;;6.63;3.55;;;20.00;73.20;;;;;;10481520;28;20033;-57
2023/09/25 17:47:41;;;;;;;11.40;3.17;;;20.00;73.00;;;;;;10468423;28;20236;-57
2023/09/25 17:52:46;;;;;;;5.07;2.42;;;20.00;72.90;;;;;;10469825;28;20422;-57
2023/09/25 17:57:47;;;;;;;5.57;3.60;;;20.00;72.90;;;;;;10470941;28;20471;-57
2023/09/25 18:02:49;;;;;;;6.45;3.30;;;19.90;72.70;;;;;;10480075;28;20025;-57
2023/09/25 18:07:50;;;;;;;5.68;2.92;;;19.90;72.80;;;;;;10467487;28;20039;-57
2023/09/25 18:12:50;;;;;;;6.07;2.65;;;19.90;72.80;;;;;;10466046;28;20048;-57
2023/09/25 18:17:51;;;;;;;5.93;2.47;;;19.90;72.70;;;;;;10475722;28;20605;-57
2023/09/25 18:22:52;;;;;;;6.38;3.47;;;19.90;72.90;;;;;;10476093;28;20460;-57
2023/09/25 18:27:53;;;;;;;5.18;2.63;;;19.90;72.90;;;;;;10471314;28;20047;-57
2023/09/25 18:32:56;;;;;;;3.95;2.13;;;19.90;73.00;;;;;;10468142;28;20040;-57
2023/09/25 18:37:56;;;;;;;5.57;2.75;;;19.90;73.20;;;;;;10470833;28;20036;-57
2023/09/25 18:43:00;;;;;;;4.95;2.45;;;19.90;73.40;;;;;;10483752;28;20032;-56
2023/09/25 18:48:01;;;;;;;3.80;2.33;;;19.90;73.40;;;;;;10462719;28;20414;-57
2023/09/25 18:53:02;;;;;;;5.88;2.65;;;19.90;73.30;;;;;;10481567;28;20036;-57
2023/09/25 18:58:03;;;;;;;8.43;2.63;;;19.90;73.70;;;;;;10472775;28;20039;-57
2023/09/25 19:03:04;;;;;;;7.25;3.28;;;20.00;73.60;;;;;;10467725;28;20036;-57
2023/09/25 19:08:06;;;;;;;4.90;2.97;;;19.90;73.50;;;;;;10470138;28;20475;-57
2023/09/25 19:13:06;;;;;;;8.48;2.17;;;19.90;73.20;;;;;;10462823;28;20017;-57
2023/09/25 19:18:07;;;;;;;5.53;2.72;;;19.90;73.50;;;;;;10478889;28;20044;-58
2023/09/25 19:23:09;;;;;;;5.38;2.42;;;19.90;73.50;;;;;;10470178;28;20480;-57
2023/09/25 19:28:10;;;;;;;4.78;2.00;;;19.80;73.10;;;;;;10460575;28;20037;-58
2023/09/25 19:33:11;;;;;;;6.72;2.58;;;19.80;73.20;;;;;;10457772;28;20071;-58
2023/09/25 19:38:12;;;;;;;5.13;2.20;;;19.80;73.10;;;;;;10450778;28;20556;-58
2023/09/25 19:43:12;;;;;;;3.65;1.70;;;19.80;73.20;;;;;;10450248;28;20033;-58
2023/09/25 19:48:13;;;;;;;4.28;2.28;;;19.80;73.20;;;;;;10450979;28;20036;-57
2023/09/25 19:53:14;;;;;;;10.88;2.50;;;19.80;73.20;;;;;;10450154;28;20028;-58
2023/09/25 19:58:15;;;;;;;4.03;1.95;;;19.80;73.20;;;;;;10450245;28;20025;-57
2023/09/25 20:03:16;;;;;;;3.85;2.00;;;19.80;73.20;;;;;;10449976;28;20499;-57
2023/09/25 20:08:16;;;;;;;5.20;2.20;;;19.80;73.20;;;;;;10450518;28;20550;-58
2023/09/25 20:13:17;;;;;;;4.32;2.22;;;19.80;73.30;;;;;;10449570;28;20029;-57
2023/09/25 20:18:18;;;;;;;4.53;2.53;;;19.80;73.20;;;;;;10473284;28;20050;-57
2023/09/25 20:23:19;;;;;;;5.10;2.75;;;19.80;73.20;;;;;;10499250;28;20028;-57
2023/09/25 20:28:20;;;;;;;2.83;1.80;;;19.80;73.30;;;;;;10503535;28;20020;-57
2023/09/25 20:33:21;;;;;;;3.13;2.05;;;19.80;73.20;;;;;;10460412;28;20032;-57
2023/09/25 20:38:24;;;;;;;3.33;1.67;;;19.80;73.30;;;;;;10457276;28;20447;-57
2023/09/25 20:43:24;;;;;;;3.83;1.73;;;19.80;73.30;;;;;;10485082;28;20028;-58
2023/09/25 20:48:25;;;;;;;3.53;1.90;;;19.80;73.30;;;;;;10482648;28;20628;-57
2023/09/25 20:53:26;;;;;;;4.32;2.05;;;19.80;73.30;;;;;;10456848;28;20033;-57
2023/09/25 20:58:26;;;;;;;3.75;1.92;;;19.80;73.30;;;;;;10456961;28;20025;-58
2023/09/25 21:03:27;;;;;;;4.32;1.92;;;19.80;73.30;;;;;;10456406;28;20032;-57
2023/09/25 21:08:28;;;;;;;2.97;1.85;;;19.80;73.30;;;;;;10456280;28;20384;-58
2023/09/25 21:13:30;;;;;;;3.63;2.13;;;19.80;73.30;;;;;;10456051;28;20029;-58
2023/09/25 21:18:32;;;;;;;2.75;1.20;;;19.70;73.30;;;;;;10456425;28;20132;-58
2023/09/25 21:23:33;;;;;;;4.18;2.40;;;19.70;73.30;;;;;;10455622;28;20028;-58
2023/09/25 21:28:34;;;;;;;4.03;1.67;;;19.80;73.40;;;;;;10467781;28;20549;-57
2023/09/25 21:33:35;;;;;;;2.45;1.65;;;19.70;73.30;;;;;;10455059;28;20111;-57
2023/09/25 21:38:35;;;;;;;2.75;1.52;;;19.70;73.40;;;;;;10455662;28;20044;-58
2023/09/25 21:43:36;;;;;;;2.97;1.58;;;19.70;73.40;;;;;;10454766;28;20017;-58
2023/09/25 21:48:39;;;;;;;4.88;1.85;;;19.70;73.40;;;;;;10455099;28;20472;-57
2023/09/25 21:53:40;;;;;;;2.85;1.45;;;19.70;73.40;;;;;;10454577;28;20094;-58
2023/09/25 21:58:40;;;;;;;4.03;1.55;;;19.70;73.40;;;;;;10462003;28;20086;-57
2023/09/25 22:03:42;;;;;;;2.53;1.13;;;19.70;73.50;;;;;;10488543;28;20086;-57
2023/09/25 22:08:42;;;;;;;2.03;1.30;;;19.70;73.50;;;;;;10496151;28;20283;-57
2023/09/25 22:13:43;;;;;;;3.15;1.40;;;19.70;73.50;;;;;;10495251;28;20410;-57
2023/09/25 22:18:44;;;;;;;2.33;1.40;;;19.70;73.40;;;;;;10455916;28;20702;-57
2023/09/25 22:23:44;;;;;;;2.63;1.60;;;19.70;73.50;;;;;;10453467;28;20031;-57
2023/09/25 22:28:45;;;;;;;1.80;1.13;;;19.70;73.50;;;;;;10466720;28;20035;-57
2023/09/25 22:33:49;;;;;;;6.25;2.97;;;19.70;73.30;;;;;;10453027;28;20052;-57
2023/09/25 22:38:49;;;;;;;3.75;1.90;;;19.70;73.30;;;;;;10452327;28;20029;-56
2023/09/25 22:43:50;;;;;;;2.70;1.90;;;19.60;73.20;;;;;;10451586;28;20644;-58
2023/09/25 22:48:51;;;;;;;4.20;2.25;;;19.60;73.20;;;;;;10453097;28;20415;-57
2023/09/25 22:53:52;;;;;;;3.38;1.52;;;19.60;73.20;;;;;;10452470;28;20033;-58
2023/09/25 22:58:52;;;;;;;3.67;1.90;;;19.60;73.20;;;;;;10452769;28;20423;-57
2023/09/25 23:03:53;;;;;;;2.53;1.65;;;19.60;73.20;;;;;;10451787;28;20078;-57
2023/09/25 23:08:54;;;;;;;2.83;2.00;;;19.60;73.20;;;;;;10452081;28;20480;-57
2023/09/25 23:13:55;;;;;;;2.53;1.50;;;19.60;73.20;;;;;;10451432;28;20047;-58
2023/09/25 23:18:56;;;;;;;2.55;1.48;;;19.60;73.20;;;;;;10478554;28;20048;-57
2023/09/25 23:23:57;;;;;;;2.92;1.80;;;19.60;73.10;;;;;;10492359;28;20024;-57
2023/09/25 23:28:57;;;;;;;1.88;1.23;;;19.60;73.10;;;;;;10496819;28;20024;-57
2023/09/25 23:33:58;;;;;;;2.45;1.60;;;19.60;73.10;;;;;;10450858;28;20029;-58
2023/09/25 23:38:59;;;;;;;2.90;1.50;;;19.60;73.10;;;;;;10450962;28;20024;-57
2023/09/25 23:44:00;;;;;;;4.43;2.10;;;19.60;73.10;;;;;;10450511;28;20506;-58
2023/09/25 23:49:00;;;;;;;2.72;1.40;;;19.60;73.10;;;;;;10450584;28;20037;-58
2023/09/25 23:54:01;;;;;;;3.17;1.80;;;19.60;73.10;;;;;;10449867;28;20033;-57
2023/09/25 23:59:02;;;;;;;2.88;1.73;;;19.60;73.10;;;;;;10450503;28;20037;-57
